| time (UTC) | temp F | wind direction | speed MPH | gust MPH | rain 1hr in | rain 24hr in | rain mn in | humidity % | barometer mb |
| 20260503060253 | 70 | 188 | 2.0 | 4.0 | 0.00 | 0.00 | 0.00 | 35 | 1013.8 |
| 20260503054517 | 69 | 306 | 2.0 | 7.0 | 0.00 | 0.00 | 0.00 | 38 | 1013.8 |
| 20260503054016 | 69 | 174 | 2.0 | 7.0 | 0.00 | 0.00 | 0.00 | 37 | 1013.8 |
| 20260503053518 | 70 | 141 | 3.0 | 7.0 | 0.00 | 0.00 | 0.00 | 36 | 1013.8 |
| 20260503053014 | 70 | 122 | 3.0 | 7.0 | 0.00 | 0.00 | 0.00 | 36 | 1013.9 |
| 20260503052515 | 69 | 249 | 2.0 | 6.0 | 0.00 | 0.00 | 0.00 | 39 | 1013.8 |
| 20260503052249 | 70 | 145 | 3.0 | 6.0 | 0.00 | 0.00 | 0.00 | 36 | 1013.9 |
| 20260503051514 | 71 | 183 | 2.0 | 8.0 | 0.00 | 0.00 | 0.00 | 37 | 1013.9 |
| 20260503051014 | 71 | 328 | 1.0 | 8.0 | 0.00 | 0.00 | 0.00 | 36 | 1013.8 |
| 20260503050516 | 71 | 46 | 1.0 | 7.0 | 0.00 | 0.00 | 0.00 | 37 | 1013.9 |
| 20260503050014 | 71 | 359 | 3.0 | 9.0 | 0.00 | 0.00 | 0.00 | 36 | 1013.9 |
| 20260503045513 | 71 | 187 | 3.0 | 9.0 | 0.00 | 0.00 | 0.00 | 36 | 1013.9 |
| 20260503045012 | 71 | 170 | 3.0 | 9.0 | 0.00 | 0.00 | 0.00 | 36 | 1013.8 |
| 20260503044515 | 71 | 214 | 2.0 | 9.0 | 0.00 | 0.00 | 0.00 | 37 | 1013.8 |
| 20260503044248 | 71 | 164 | 1.0 | 4.0 | 0.00 | 0.00 | 0.00 | 37 | 1013.8 |
| 20260503043511 | 70 | 249 | 1.0 | 4.0 | 0.00 | 0.00 | 0.00 | 37 | 1013.7 |
| 20260503043245 | 70 | 50 | 2.0 | 6.0 | 0.00 | 0.00 | 0.00 | 38 | 1013.7 |
| 20260503042508 | 71 | 135 | 3.0 | 6.0 | 0.00 | 0.00 | 0.00 | 37 | 1013.6 |
| 20260503042010 | 72 | 151 | 2.0 | 6.0 | 0.00 | 0.00 | 0.00 | 36 | 1013.6 |
| 20260503041506 | 71 | 118 | 2.0 | 5.0 | 0.00 | 0.00 | 0.00 | 36 | 1013.5 |
| 20260503041005 | 71 | 153 | 2.0 | 4.0 | 0.00 | 0.00 | 0.00 | 36 | 1013.6 |
| 20260503040503 | 71 | 176 | 2.0 | 7.0 | 0.00 | 0.00 | 0.00 | 36 | 1013.5 |
| 20260503040004 | 71 | 317 | 2.0 | 7.0 | 0.00 | 0.00 | 0.00 | 37 | 1013.4 |
| 20260503035733 | 71 | 69 | 2.0 | 6.0 | 0.00 | 0.00 | 0.00 | 37 | 1013.4 |
| 20260503035002 | 70 | 324 | 2.0 | 6.0 | 0.00 | 0.00 | 0.00 | 39 | 1013.2 |
| 20260503034502 | 71 | 117 | 3.0 | 6.0 | 0.00 | 0.00 | 0.00 | 39 | 1013.2 |
| 20260503034001 | 70 | 126 | 2.0 | 4.0 | 0.00 | 0.00 | 0.00 | 39 | 1013.2 |
| 20260503033501 | 71 | 151 | 1.0 | 4.0 | 0.00 | 0.00 | 0.00 | 38 | 1013.1 |
| 20260503033001 | 71 | 178 | 1.0 | 4.0 | 0.00 | 0.00 | 0.00 | 38 | 1013.1 |
| 20260503032501 | 71 | 162 | 1.0 | 6.0 | 0.00 | 0.00 | 0.00 | 39 | 1013.1 |
| 20260503032002 | 72 | 300 | 1.0 | 6.0 | 0.00 | 0.00 | 0.00 | 37 | 1013.0 |
| 20260503031732 | 71 | 137 | 1.0 | 3.0 | 0.00 | 0.00 | 0.00 | 37 | 1013.0 |
| 20260503031002 | 71 | 122 | 2.0 | 4.0 | 0.00 | 0.00 | 0.00 | 40 | 1013.0 |
| 20260503030733 | 71 | 139 | 2.0 | 5.0 | 0.00 | 0.00 | 0.00 | 40 | 1013.0 |
| 20260503025501 | 72 | 156 | 2.0 | 5.0 | 0.00 | 0.00 | 0.00 | 38 | 1013.0 |
| 20260503025233 | 71 | 119 | 2.0 | 4.0 | 0.00 | 0.00 | 0.00 | 41 | 1013.0 |
| 20260503024501 | 71 | 120 | 1.0 | 3.0 | 0.00 | 0.00 | 0.00 | 40 | 1012.9 |
| 20260503024013 | 72 | 122 | 2.0 | 3.0 | 0.00 | 0.00 | 0.00 | 41 | 1012.9 |
| 20260503023507 | 72 | 122 | 2.0 | 4.0 | 0.00 | 0.00 | 0.00 | 42 | 1012.9 |
| 20260503023000 | 72 | 133 | 2.0 | 5.0 | 0.00 | 0.00 | 0.00 | 41 | 1012.9 |
| 20260503022720 | 72 | 106 | 2.0 | 5.0 | 0.00 | 0.00 | 0.00 | 41 | 1013.0 |
| 20260503021948 | 74 | 93 | 1.0 | 4.0 | 0.00 | 0.00 | 0.00 | 37 | 1012.9 |
| 20260503021442 | 74 | 93 | 1.0 | 4.0 | 0.00 | 0.00 | 0.00 | 38 | 1013.0 |
| 20260503020942 | 73 | 93 | 1.0 | 5.0 | 0.00 | 0.00 | 0.00 | 42 | 1013.1 |
| 20260503020711 | 73 | 92 | 1.0 | 5.0 | 0.00 | 0.00 | 0.00 | 42 | 1013.1 |
| 20260503015941 | 73 | 53 | 1.0 | 5.0 | 0.00 | 0.00 | 0.00 | 38 | 1013.2 |
| 20260503015447 | 74 | 50 | 1.0 | 5.0 | 0.00 | 0.00 | 0.00 | 40 | 1013.1 |
| 20260503015216 | 73 | 68 | 1.0 | 4.0 | 0.00 | 0.00 | 0.00 | 40 | 1013.2 |
| 20260503014709 | 74 | 97 | 2.0 | 5.0 | 0.00 | 0.00 | 0.00 | 37 | 1013.2 |
| 20260503013940 | 73 | 68 | 1.0 | 5.0 | 0.00 | 0.00 | 0.00 | 41 | 1013.1 |
| 20260503013440 | 75 | 109 | 2.0 | 4.0 | 0.00 | 0.00 | 0.00 | 39 | 1013.2 |
| 20260503012938 | 72 | 107 | 2.0 | 5.0 | 0.00 | 0.00 | 0.00 | 39 | 1013.2 |
| 20260503012700 | 74 | 165 | 2.0 | 5.0 | 0.00 | 0.00 | 0.00 | 41 | 1013.3 |
| 20260503011938 | 73 | 128 | 1.0 | 3.0 | 0.00 | 0.00 | 0.00 | 43 | 1013.3 |
| 20260503010934 | 74 | 249 | 1.0 | 4.0 | 0.00 | 0.00 | 0.00 | 38 | 1013.5 |
| 20260503010657 | 73 | 101 | 2.0 | 4.0 | 0.00 | 0.00 | 0.00 | 44 | 1013.5 |
| 20260503005935 | 74 | 101 | 2.0 | 6.0 | 0.00 | 0.00 | 0.00 | 43 | 1013.6 |
| 20260503005433 | 73 | 93 | 3.0 | 6.0 | 0.00 | 0.00 | 0.00 | 45 | 1013.6 |
| 20260503004933 | 74 | 64 | 3.0 | 6.0 | 0.00 | 0.00 | 0.00 | 43 | 1013.8 |
| 20260503004438 | 71 | 102 | 3.0 | 9.0 | 0.00 | 0.00 | 0.00 | 47 | 1013.8 |
| 20260503003933 | 70 | 93 | 3.0 | 9.0 | 0.00 | 0.00 | 0.00 | 48 | 1013.9 |
| 20260503003435 | 71 | 90 | 4.0 | 9.0 | 0.00 | 0.00 | 0.00 | 48 | 1013.9 |
| 20260503002932 | 69 | 101 | 3.0 | 9.0 | 0.00 | 0.00 | 0.00 | 49 | 1014.0 |
| 20260503002431 | 69 | 124 | 3.0 | 8.0 | 0.00 | 0.00 | 0.00 | 52 | 1014.1 |
| 20260503001929 | 70 | 106 | 3.0 | 6.0 | 0.00 | 0.00 | 0.00 | 52 | 1014.0 |
| 20260503001657 | 69 | 95 | 2.0 | 5.0 | 0.00 | 0.00 | 0.00 | 49 | 1014.1 |
| 20260503000930 | 71 | 70 | 3.0 | 8.0 | 0.00 | 0.00 | 0.00 | 50 | 1014.1 |
| 20260503000430 | 69 | 76 | 3.0 | 8.0 | 0.00 | 0.00 | 0.00 | 52 | 1014.1 |
| 20260502235930 | 71 | 201 | 3.0 | 7.0 | 0.00 | 0.00 | 0.00 | 48 | 1014.1 |
| 20260502235429 | 71 | 51 | 2.0 | 7.0 | 0.00 | 0.00 | 0.00 | 49 | 1014.1 |
| 20260502235149 | 71 | 66 | 2.0 | 6.0 | 0.00 | 0.00 | 0.00 | 49 | 1014.2 |
| 20260502234429 | 70 | 77 | 3.0 | 6.0 | 0.00 | 0.00 | 0.00 | 50 | 1014.2 |
| 20260502233929 | 70 | 67 | 3.0 | 8.0 | 0.00 | 0.00 | 0.00 | 53 | 1014.3 |
| 20260502233429 | 70 | 85 | 3.0 | 8.0 | 0.00 | 0.00 | 0.00 | 52 | 1014.4 |
| 20260502232929 | 70 | 172 | 2.0 | 8.0 | 0.00 | 0.00 | 0.00 | 49 | 1014.4 |
| 20260502232423 | 69 | 75 | 2.0 | 8.0 | 0.00 | 0.00 | 0.00 | 54 | 1014.5 |
| 20260502232143 | 70 | 63 | 3.0 | 8.0 | 0.00 | 0.00 | 0.00 | 50 | 1014.6 |
| 20260502231411 | 69 | 93 | 3.0 | 7.0 | 0.00 | 0.00 | 0.00 | 53 | 1014.7 |
| 20260502231132 | 69 | 89 | 3.0 | 8.0 | 0.00 | 0.00 | 0.00 | 49 | 1014.7 |
| 20260502230406 | 69 | 222 | 3.0 | 8.0 | 0.00 | 0.00 | 0.00 | 51 | 1014.7 |
| 20260502230128 | 68 | 50 | 3.0 | 7.0 | 0.00 | 0.00 | 0.00 | 52 | 1014.8 |
| 20260502225406 | 69 | 270 | 3.0 | 12.0 | 0.00 | 0.00 | 0.00 | 55 | 1014.9 |
| 20260502224906 | 68 | 49 | 3.0 | 12.0 | 0.00 | 0.00 | 0.00 | 54 | 1014.9 |
| 20260502224406 | 69 | 357 | 2.0 | 5.0 | 0.00 | 0.00 | 0.00 | 54 | 1015.1 |
| 20260502223906 | 69 | 307 | 2.0 | 5.0 | 0.00 | 0.00 | 0.00 | 54 | 1015.1 |
| 20260502223632 | 68 | 134 | 3.0 | 8.0 | 0.00 | 0.00 | 0.00 | 55 | 1015.2 |
| 20260502222904 | 67 | 64 | 3.0 | 8.0 | 0.00 | 0.00 | 0.00 | 58 | 1015.3 |
| 20260502222628 | 68 | 320 | 3.0 | 11.0 | 0.00 | 0.00 | 0.00 | 57 | 1015.3 |
| 20260502221901 | 67 | 57 | 3.0 | 11.0 | 0.00 | 0.00 | 0.00 | 54 | 1015.4 |
| 20260502221401 | 68 | 304 | 3.0 | 8.0 | 0.00 | 0.00 | 0.00 | 58 | 1015.5 |
| 20260502220901 | 67 | 308 | 3.0 | 8.0 | 0.00 | 0.00 | 0.00 | 57 | 1015.5 |
| 20260502220404 | 67 | 134 | 3.0 | 8.0 | 0.00 | 0.00 | 0.00 | 56 | 1015.4 |
| 20260502215906 | 66 | 25 | 3.0 | 8.0 | 0.00 | 0.00 | 0.00 | 59 | 1015.5 |
| 20260502215622 | 67 | 272 | 3.0 | 8.0 | 0.00 | 0.00 | 0.00 | 59 | 1015.7 |
| 20260502214901 | 65 | 58 | 3.0 | 9.0 | 0.00 | 0.00 | 0.00 | 60 | 1015.7 |
| 20260502214401 | 67 | 318 | 3.0 | 9.0 | 0.00 | 0.00 | 0.00 | 58 | 1015.7 |
| 20260502213857 | 66 | 16 | 3.0 | 8.0 | 0.00 | 0.00 | 0.00 | 58 | 1015.8 |
| 20260502213351 | 66 | 188 | 3.0 | 9.0 | 0.00 | 0.00 | 0.00 | 59 | 1015.9 |
| 20260502212845 | 65 | 44 | 3.0 | 9.0 | 0.00 | 0.00 | 0.00 | 61 | 1015.9 |
| 20260502211836 | 65 | 58 | 3.0 | 8.0 | 0.00 | 0.00 | 0.00 | 62 | 1016.0 |
| 20260502211335 | 65 | 124 | 3.0 | 8.0 | 0.00 | 0.00 | 0.00 | 63 | 1016.0 |
| 20260502210836 | 64 | 305 | 3.0 | 8.0 | 0.00 | 0.00 | 0.00 | 65 | 1016.1 |
| 20260502210559 | 64 | 62 | 2.0 | 8.0 | 0.00 | 0.00 | 0.00 | 66 | 1016.1 |
| 20260502210051 | 64 | 321 | 3.0 | 11.0 | 0.00 | 0.00 | 0.00 | 65 | 1016.1 |
| 20260502205328 | 64 | 290 | 3.0 | 11.0 | 0.00 | 0.00 | 0.00 | 65 | 1016.1 |
| 20260502204829 | 64 | 133 | 3.0 | 9.0 | 0.00 | 0.00 | 0.00 | 65 | 1016.2 |
| 20260502204329 | 65 | 323 | 3.0 | 9.0 | 0.00 | 0.00 | 0.00 | 65 | 1016.2 |
| 20260502203829 | 64 | 138 | 2.0 | 6.0 | 0.00 | 0.00 | 0.00 | 68 | 1016.2 |
| 20260502203329 | 65 | 290 | 2.0 | 6.0 | 0.00 | 0.00 | 0.00 | 68 | 1016.2 |
| 20260502202829 | 64 | 261 | 2.0 | 6.0 | 0.00 | 0.00 | 0.00 | 68 | 1016.2 |
| 20260502202329 | 66 | 69 | 2.0 | 5.0 | 0.00 | 0.00 | 0.00 | 67 | 1016.3 |
| 20260502201829 | 65 | 64 | 2.0 | 5.0 | 0.00 | 0.00 | 0.00 | 68 | 1016.5 |
| 20260502201555 | 64 | 285 | 2.0 | 8.0 | 0.00 | 0.00 | 0.00 | 69 | 1016.5 |
| 20260502200829 | 64 | 43 | 2.0 | 8.0 | 0.00 | 0.00 | 0.00 | 68 | 1016.5 |
| 20260502200329 | 63 | 29 | 2.0 | 7.0 | 0.00 | 0.00 | 0.00 | 70 | 1016.5 |
| 20260502195829 | 64 | 28 | 3.0 | 9.0 | 0.00 | 0.00 | 0.00 | 69 | 1016.4 |
| 20260502195329 | 62 | 86 | 3.0 | 9.0 | 0.00 | 0.00 | 0.00 | 68 | 1016.5 |
| 20260502194829 | 63 | 37 | 2.0 | 7.0 | 0.00 | 0.00 | 0.00 | 69 | 1016.6 |
| 20260502194329 | 64 | 323 | 3.0 | 8.0 | 0.00 | 0.00 | 0.00 | 70 | 1016.6 |
| 20260502193833 | 62 | 74 | 3.0 | 8.0 | 0.00 | 0.00 | 0.00 | 71 | 1016.6 |
| 20260502193333 | 64 | 95 | 3.0 | 8.0 | 0.00 | 0.00 | 0.00 | 71 | 1016.7 |
| 20260502192837 | 63 | 103 | 3.0 | 8.0 | 0.00 | 0.00 | 0.00 | 72 | 1016.7 |
| 20260502192333 | 62 | 67 | 3.0 | 8.0 | 0.00 | 0.00 | 0.00 | 72 | 1016.8 |
| 20260502191833 | 62 | 41 | 2.0 | 8.0 | 0.00 | 0.00 | 0.00 | 74 | 1016.8 |
| 20260502191555 | 63 | 28 | 2.0 | 7.0 | 0.00 | 0.00 | 0.00 | 73 | 1016.7 |
| 20260502190829 | 61 | 102 | 2.0 | 9.0 | 0.00 | 0.00 | 0.00 | 75 | 1016.9 |
| 20260502190326 | 61 | 99 | 3.0 | 9.0 | 0.00 | 0.00 | 0.00 | 73 | 1016.9 |
| 20260502185827 | 60 | 250 | 3.0 | 8.0 | 0.00 | 0.00 | 0.00 | 76 | 1016.9 |
| 20260502184827 | 60 | 116 | 3.0 | 7.0 | 0.00 | 0.00 | 0.00 | 77 | 1016.9 |
| 20260502184603 | 59 | 85 | 3.0 | 7.0 | 0.00 | 0.00 | 0.00 | 77 | 1017.0 |
| 20260502183827 | 59 | 7 | 2.0 | 6.0 | 0.00 | 0.00 | 0.00 | 77 | 1016.9 |
| 20260502183327 | 59 | 345 | 2.0 | 6.0 | 0.00 | 0.00 | 0.00 | 79 | 1017.0 |
| 20260502182827 | 59 | 96 | 2.0 | 6.0 | 0.00 | 0.00 | 0.00 | 80 | 1017.0 |
| 20260502182327 | 59 | 99 | 1.0 | 6.0 | 0.00 | 0.00 | 0.00 | 77 | 1017.1 |
| 20260502181827 | 59 | 133 | 1.0 | 6.0 | 0.00 | 0.00 | 0.00 | 78 | 1016.9 |
| 20260502181326 | 59 | 27 | 1.0 | 6.0 | 0.00 | 0.00 | 0.00 | 79 | 1017.0 |
| 20260502180827 | 59 | 55 | 2.0 | 6.0 | 0.00 | 0.00 | 0.00 | 78 | 1016.9 |
| 20260502180328 | 60 | 301 | 2.0 | 4.0 | 0.00 | 0.00 | 0.00 | 79 | 1017.0 |
| 20260502170324 | 57 | 299 | 1.0 | 5.0 | 0.00 | 0.00 | 0.00 | 84 | 1017.5 |
| 20260502164324 | 56 | 339 | 2.0 | 7.0 | 0.00 | 0.00 | 0.00 | 86 | 1017.3 |
| 20260502163824 | 56 | 276 | 2.0 | 7.0 | 0.00 | 0.00 | 0.00 | 86 | 1017.3 |
| 20260502163323 | 55 | 238 | 2.0 | 7.0 | 0.00 | 0.00 | 0.00 | 87 | 1017.3 |
| 20260502163057 | 55 | 132 | 2.0 | 7.0 | 0.00 | 0.00 | 0.00 | 87 | 1017.2 |
| 20260502162326 | 55 | 49 | 2.0 | 7.0 | 0.00 | 0.00 | 0.00 | 86 | 1017.1 |
| 20260502161823 | 55 | 23 | 2.0 | 7.0 | 0.00 | 0.00 | 0.00 | 86 | 1017.2 |
| 20260502161322 | 56 | 97 | 2.0 | 7.0 | 0.00 | 0.00 | 0.00 | 86 | 1017.2 |
| 20260502161053 | 55 | 345 | 2.0 | 11.0 | 0.00 | 0.00 | 0.00 | 86 | 1017.1 |
| 20260502160320 | 55 | 258 | 3.0 | 11.0 | 0.00 | 0.00 | 0.00 | 87 | 1017.1 |
| 20260502152318 | 56 | 124 | 3.0 | 9.0 | 0.00 | 0.00 | 0.00 | 85 | 1017.1 |
| 20260502151817 | 55 | 128 | 4.0 | 9.0 | 0.00 | 0.00 | 0.00 | 85 | 1017.2 |
| 20260502151555 | 55 | 94 | 4.0 | 8.0 | 0.00 | 0.00 | 0.00 | 86 | 1017.1 |
| 20260502150816 | 55 | 72 | 3.0 | 8.0 | 0.00 | 0.00 | 0.00 | 86 | 1017.1 |
| 20260502150310 | 55 | 99 | 3.0 | 10.0 | 0.00 | 0.00 | 0.00 | 86 | 1017.1 |
| 20260502130739 | 55 | 239 | 2.0 | 8.0 | 0.00 | 0.00 | 0.00 | 83 | 1016.4 |
| 20260502130237 | 55 | 267 | 2.0 | 8.0 | 0.00 | 0.00 | 0.00 | 83 | 1016.2 |
| 20260502123231 | 55 | 332 | 2.0 | 7.0 | 0.00 | 0.00 | 0.00 | 83 | 1016.2 |
| 20260502122729 | 55 | 246 | 2.0 | 6.0 | 0.00 | 0.00 | 0.00 | 83 | 1016.2 |
| 20260502122502 | 55 | 307 | 3.0 | 7.0 | 0.00 | 0.00 | 0.00 | 83 | 1016.2 |
| 20260502121729 | 55 | 214 | 2.0 | 7.0 | 0.00 | 0.00 | 0.00 | 83 | 1016.2 |
| 20260502121230 | 55 | 290 | 2.0 | 6.0 | 0.00 | 0.00 | 0.00 | 82 | 1016.1 |
| 20260502120729 | 55 | 302 | 2.0 | 7.0 | 0.00 | 0.00 | 0.00 | 82 | 1016.1 |
| 20260502120232 | 55 | 117 | 2.0 | 7.0 | 0.00 | 0.00 | 0.00 | 81 | 1016.1 |
| 20260502115731 | 55 | 218 | 2.0 | 8.0 | 0.00 | 0.00 | 0.00 | 81 | 1016.1 |
| 20260502115230 | 56 | 274 | 2.0 | 8.0 | 0.00 | 0.00 | 0.00 | 80 | 1016.2 |
| 20260502114729 | 56 | 259 | 2.0 | 6.0 | 0.00 | 0.00 | 0.00 | 80 | 1016.2 |
| 20260502114230 | 56 | 118 | 2.0 | 6.0 | 0.00 | 0.00 | 0.00 | 80 | 1016.2 |
| 20260502113729 | 56 | 285 | 2.0 | 8.0 | 0.00 | 0.00 | 0.00 | 80 | 1016.2 |
| 20260502113230 | 56 | 285 | 2.0 | 8.0 | 0.00 | 0.00 | 0.00 | 79 | 1016.1 |
| 20260502112951 | 56 | 189 | 2.0 | 6.0 | 0.00 | 0.00 | 0.00 | 78 | 1016.2 |
| 20260502112229 | 56 | 274 | 2.0 | 8.0 | 0.00 | 0.00 | 0.00 | 78 | 1016.1 |
| 20260502111729 | 56 | 132 | 2.0 | 8.0 | 0.00 | 0.00 | 0.00 | 78 | 1016.0 |
| 20260502111228 | 56 | 209 | 2.0 | 11.0 | 0.00 | 0.00 | 0.00 | 78 | 1016.0 |
| 20260502110729 | 56 | 269 | 2.0 | 11.0 | 0.00 | 0.00 | 0.00 | 78 | 1015.9 |
| 20260502110228 | 56 | 121 | 2.0 | 6.0 | 0.00 | 0.00 | 0.00 | 78 | 1015.9 |
| 20260502105728 | 57 | 290 | 2.0 | 8.0 | 0.00 | 0.00 | 0.00 | 78 | 1015.9 |
| 20260502105227 | 57 | 255 | 2.0 | 8.0 | 0.00 | 0.00 | 0.00 | 78 | 1015.8 |
| 20260502104727 | 57 | 241 | 2.0 | 6.0 | 0.00 | 0.00 | 0.00 | 78 | 1015.8 |
| 20260502104226 | 57 | 75 | 2.0 | 6.0 | 0.00 | 0.00 | 0.00 | 78 | 1015.7 |
| 20260502103726 | 57 | 143 | 2.0 | 5.0 | 0.00 | 0.00 | 0.00 | 79 | 1015.8 |
| 20260502103459 | 57 | 323 | 2.0 | 5.0 | 0.00 | 0.00 | 0.00 | 79 | 1015.8 |
| 20260502102951 | 57 | 236 | 2.0 | 5.0 | 0.00 | 0.00 | 0.00 | 79 | 1015.7 |
| 20260502102225 | 57 | 184 | 2.0 | 7.0 | 0.00 | 0.00 | 0.00 | 79 | 1015.7 |
| 20260502101726 | 57 | 103 | 2.0 | 7.0 | 0.00 | 0.00 | 0.00 | 79 | 1015.6 |
| 20260502101226 | 58 | 68 | 3.0 | 6.0 | 0.00 | 0.00 | 0.00 | 77 | 1015.5 |
| 20260502100721 | 58 | 113 | 3.0 | 5.0 | 0.00 | 0.00 | 0.00 | 76 | 1015.5 |
| 20260502100223 | 59 | 106 | 2.0 | 5.0 | 0.00 | 0.00 | 0.00 | 74 | 1015.6 |
| 20260502091216 | 60 | 83 | 1.0 | 5.0 | 0.00 | 0.00 | 0.00 | 66 | 1015.4 |
| 20260502090714 | 60 | 80 | 1.0 | 4.0 | 0.00 | 0.00 | 0.00 | 66 | 1015.4 |
| 20260502090436 | 60 | 142 | 2.0 | 5.0 | 0.00 | 0.00 | 0.00 | 66 | 1015.5 |
| 20260502071357 | 63 | 281 | 3.0 | 10.0 | 0.00 | 0.00 | 0.00 | 58 | 1015.1 |
| 20260502070629 | 62 | 152 | 2.0 | 6.0 | 0.00 | 0.00 | 0.00 | 58 | 1015.2 |
| 20260502070129 | 62 | 155 | 2.0 | 6.0 | 0.00 | 0.00 | 0.00 | 58 | 1015.2 |
| 20260502065631 | 62 | 149 | 1.0 | 4.0 | 0.00 | 0.00 | 0.00 | 57 | 1015.1 |
| 20260502065358 | 63 | 105 | 1.0 | 4.0 | 0.00 | 0.00 | 0.00 | 57 | 1015.2 |
| 20260502064629 | 63 | 107 | 1.0 | 4.0 | 0.00 | 0.00 | 0.00 | 57 | 1015.2 |
| 20260502064129 | 63 | 170 | 1.0 | 4.0 | 0.00 | 0.00 | 0.00 | 56 | 1015.1 |
| 20260502063629 | 63 | 166 | 2.0 | 4.0 | 0.00 | 0.00 | 0.00 | 56 | 1015.1 |
| 20260502063128 | 63 | 193 | 2.0 | 6.0 | 0.00 | 0.00 | 0.00 | 56 | 1015.1 |
| 20260502062629 | 63 | 172 | 2.0 | 6.0 | 0.00 | 0.00 | 0.00 | 56 | 1015.1 |
| 20260502062131 | 63 | 99 | 2.0 | 6.0 | 0.00 | 0.00 | 0.00 | 56 | 1015.0 |